Swinomish — WC5223 — position and weather

sailwx.info

Track history (hours):
 
Tides and Currents Weather Stations Pressure Air Temp Water Temp Dewpoint Dewpoint Depression Visibility Wind Speed Wind Dir Waves Ship Positions

Swinomish

Owner: DUNLAP TOWING CO, LA CONNER, WA. More information available from US FCC via Universal Licensing System and Coast Guard Vessel Documentation Center.

Last reported at 2014-Dec-20 20:33 UTC. Time now 2014-Dec-20 20:51 UTC.
Position N 48°48' W 123°12'.

Length 15 m; draft 3.5 m.

Type: Tug. MMSI: 366972050.

Date/timePositionNaut miles runAvg speedWind from/ knotsBaromVisibWave heightAir tempDewpointWater temp
2014-Dec-20 20:33N 48°48' W 123°12'0 0.0
2014-Dec-20 19:33N 48°48' W 123°12'0 0.0
2014-Dec-20 18:33N 48°48' W 123°12'0 0.0
2014-Dec-20 17:33N 48°48' W 123°12'0 0.0
2014-Dec-20 16:32N 48°48' W 123°12'0 0.0
2014-Dec-20 15:33N 48°48' W 123°12'0 0.0
2014-Dec-20 14:32N 48°48' W 123°12'0 0.0
2014-Dec-20 13:33N 48°48' W 123°12'0 0.0
2014-Dec-20 12:32N 48°48' W 123°12'0 0.0
2014-Dec-20 11:33N 48°48' W 123°12'0 0.0
2014-Dec-20 10:30N 48°48' W 123°12'0 0.0
2014-Dec-20 09:28N 48°48' W 123°12'0 0.0
2014-Dec-20 08:31N 48°48' W 123°12'0 0.0
2014-Dec-20 07:33N 48°48' W 123°12'0 0.0
2014-Dec-20 06:33N 48°48' W 123°12'0 0.0
2014-Dec-20 05:30N 48°48' W 123°12'0 0.0
2014-Dec-20 04:23N 48°48' W 123°12'0 0.0
2014-Dec-20 03:31N 48°48' W 123°12'0 0.0
2014-Dec-20 02:33N 48°48' W 123°12'0 0.0
2014-Dec-20 01:29N 48°48' W 123°12'0 0.0
2014-Dec-20 00:25N 48°48' W 123°12'0 0.0
2014-Dec-19 23:32N 48°48' W 123°12'0 0.1
2014-Dec-19 22:33N 48°48' W 123°11'1 1.0
2014-Dec-19 21:32N 48°48' W 123°13'0 0.1
2014-Dec-19 20:31N 48°48' W 123°13'0 0.0
2014-Dec-19 19:33N 48°48' W 123°13'0 0.0
2014-Dec-19 18:33N 48°48' W 123°13'0 0.0
2014-Dec-19 17:33N 48°48' W 123°13'0 0.0
2014-Dec-19 16:31N 48°48' W 123°13'0 0.0
2014-Dec-19 15:32N 48°48' W 123°13'0 0.1
2014-Dec-19 14:31N 48°48' W 123°13'0 0.0
2014-Dec-19 13:33N 48°48' W 123°13'0 0.1
2014-Dec-19 12:31N 48°48' W 123°13'0 0.0
2014-Dec-19 11:32N 48°48' W 123°13'0 0.0
2014-Dec-19 10:33N 48°48' W 123°13'0 0.0
2014-Dec-19 09:33N 48°48' W 123°13'0 0.0
2014-Dec-19 08:33N 48°48' W 123°13'0 0.0
2014-Dec-19 07:31N 48°48' W 123°13'0 0.1
2014-Dec-19 06:33N 48°48' W 123°13'0 0.2
2014-Dec-19 05:31N 48°48' W 123°13'0 0.2
2014-Dec-19 04:32N 48°48' W 123°13'0 0.1
2014-Dec-19 03:32N 48°48' W 123°13'0 0.2
2014-Dec-19 02:33N 48°48' W 123°13'0 0.1
2014-Dec-19 01:31N 48°48' W 123°13'0 0.1
2014-Dec-19 00:33N 48°48' W 123°13'0 0.1
2014-Dec-18 23:32N 48°48' W 123°13'0 0.0
2014-Dec-18 22:33N 48°48' W 123°13'0 0.0
2014-Dec-18 21:29N 48°48' W 123°13'0 0.0
2014-Dec-18 20:33N 48°48' W 123°13'0 0.0
2014-Dec-18 19:31N 48°48' W 123°13'0 0.0
2014-Dec-18 18:31N 48°48' W 123°13'0 0.0
2014-Dec-18 17:31N 48°48' W 123°13'0 0.0
2014-Dec-18 16:33N 48°48' W 123°13'0 0.2
2014-Dec-18 15:33N 48°48' W 123°13'0 0.3
2014-Dec-18 14:33N 48°48' W 123°13'1 0.6
2014-Dec-18 13:32N 48°48' W 123°13'0 0.0
2014-Dec-18 12:29N 48°48' W 123°13'0 0.0
2014-Dec-18 11:31N 48°48' W 123°13'0 0.0
2014-Dec-18 10:30N 48°48' W 123°13'0 0.0
2014-Dec-18 09:33N 48°48' W 123°13'0 0.0
2014-Dec-18 08:29N 48°48' W 123°13'0 0.1
2014-Dec-18 07:33N 48°48' W 123°13'1 1.0
2014-Dec-18 06:28N 48°48' W 123°14'4 1.8
2014-Dec-18 04:20N 48°49' W 123°20'3 1.8
2014-Dec-18 02:32N 48°51' W 123°24'4 2.5
2014-Dec-18 01:04N 48°54' W 123°28'2 2.2
2014-Dec-18 00:15N 48°55' W 123°30'6 2.0
2014-Dec-17 21:17N 48°60' W 123°36'3 1.8
2014-Dec-17 19:30N 49°02' W 123°39'4 1.8
2014-Dec-17 17:20N 49°05' W 123°42'2 1.7
2014-Dec-17 16:21N 49°07' W 123°43'0 0.2
2014-Dec-17 14:04N 49°07' W 123°43'0 0.2
2014-Dec-17 11:23N 49°07' W 123°43'0 0.1
2014-Dec-17 10:20N 49°07' W 123°43'2 1.4
2014-Dec-17 08:30N 49°05' W 123°44'3 2.7
2014-Dec-17 07:31N 49°02' W 123°44'2 2.5
2014-Dec-17 06:33N 48°60' W 123°44'2 2.4
2014-Dec-17 05:32N 48°57' W 123°42'2 2.2
2014-Dec-17 04:32N 48°55' W 123°41'2 1.9
2014-Dec-17 03:33N 48°55' W 123°38'9 8.2
2014-Dec-17 02:29N 48°52' W 123°26'1111.1
2014-Dec-17 01:32N 48°46' W 123°13'1211.9
2014-Dec-17 00:33N 48°44' W 122°55'1010.5
2014-Dec-16 23:33N 48°39' W 122°42'1111.0
2014-Dec-16 22:33N 48°30' W 122°33'6 6.2
2014-Dec-16 21:33N 48°24' W 122°30'0 0.0
2014-Dec-16 20:33N 48°24' W 122°30'0 0.0
2014-Dec-16 19:33N 48°24' W 122°30'0 0.0
2014-Dec-16 18:33N 48°24' W 122°30'0 0.0
2014-Dec-16 17:14N 48°24' W 122°30'0 0.0
2014-Dec-16 15:15N 48°24' W 122°30'0 0.0
2014-Dec-16 14:21N 48°24' W 122°30'0 0.0
2014-Dec-16 12:14N 48°24' W 122°30'0 0.0
2014-Dec-16 11:31N 48°24' W 122°30'0 0.0
2014-Dec-16 10:28N 48°24' W 122°30'0 0.0
2014-Dec-16 09:30N 48°24' W 122°30'0 0.0
2014-Dec-15 23:29N 48°24' W 122°30'0 0.0
2014-Dec-15 22:33N 48°24' W 122°30'0 0.0
2014-Dec-15 21:33N 48°24' W 122°30'0 0.0
2014-Dec-15 20:33N 48°24' W 122°30'0 0.0
2014-Dec-15 19:33N 48°24' W 122°30'0 0.0
2014-Dec-15 18:33N 48°24' W 122°30'0 0.0
2014-Dec-15 17:19N 48°24' W 122°30'0 0.0
2014-Dec-15 13:15N 48°24' W 122°30'0 0.0
2014-Dec-15 11:32N 48°24' W 122°30'3 3.1
2014-Dec-15 10:30N 48°22' W 122°33'1 0.3
2014-Dec-15 08:04N 48°22' W 122°34'2 3.8
2014-Dec-15 07:30N 48°20' W 122°32'3 3.3
2014-Dec-15 06:33N 48°18' W 122°30'3 2.7
2014-Dec-15 05:30N 48°15' W 122°33'3 2.8
2014-Dec-15 04:28N 48°13' W 122°33'3 2.7
2014-Dec-15 03:28N 48°10' W 122°33'3 2.5
2014-Dec-15 02:22N 48°07' W 122°31'2 2.2
2014-Dec-15 01:25N 48°06' W 122°28'2 1.9
2014-Dec-15 00:33N 48°05' W 122°27'2 2.0
2014-Dec-14 23:27N 48°04' W 122°24'1 1.5
2014-Dec-14 22:29N 48°03' W 122°22'1 1.3
2014-Dec-14 21:31N 48°02' W 122°21'2 2.2
2014-Dec-14 20:28N 48°01' W 122°18'2 1.8
2014-Dec-14 19:33N 47°60' W 122°16'2 2.0
2014-Dec-14 18:33N 47°59' W 122°14'1 0.6
2014-Dec-14 17:33N 47°59' W 122°13'0 0.0
2014-Dec-14 16:33N 47°59' W 122°13'0 0.0
2014-Dec-14 15:33N 47°59' W 122°13'0 0.0
2014-Dec-14 14:33N 47°59' W 122°13'0 0.0
2014-Dec-14 13:33N 47°59' W 122°13'0 0.0
2014-Dec-14 12:33N 47°59' W 122°13'0 0.0
2014-Dec-14 11:33N 47°59' W 122°13'0 0.0
2014-Dec-14 10:33N 47°59' W 122°13'0 0.0
2014-Dec-14 09:33N 47°59' W 122°13'0 0.0
2014-Dec-14 08:32N 47°59' W 122°13'0 0.0
2014-Dec-14 07:33N 47°59' W 122°13'0 0.0
2014-Dec-14 06:31N 47°59' W 122°13'0 0.0
2014-Dec-14 05:33N 47°59' W 122°13'0 0.0
2014-Dec-14 04:33N 47°59' W 122°13'0 0.0
2014-Dec-14 03:33N 47°59' W 122°13'0 0.2
2014-Dec-14 02:33N 47°59' W 122°13'0 0.4
2014-Dec-14 01:33N 47°59' W 122°14'1 1.1
2014-Dec-14 00:31N 47°59' W 122°15'2 2.2
2014-Dec-13 23:33N 48°01' W 122°17'3 2.7
2014-Dec-13 22:33N 48°02' W 122°21'3 3.0
2014-Dec-13 21:32N 48°04' W 122°24'3 2.7
2014-Dec-13 20:25N 48°06' W 122°28'3 2.8
2014-Dec-13 19:21N 48°08' W 122°31'2 2.5
2014-Dec-13 18:23N 48°10' W 122°32'5 1.9
2014-Dec-13 15:31N 48°15' W 122°32'2 1.6
2014-Dec-13 14:33N 48°17' W 122°31'1 1.4
2014-Dec-13 13:31N 48°18' W 122°30'2 2.4
2014-Dec-13 12:31N 48°20' W 122°32'6 2.9
2014-Dec-13 10:33N 48°25' W 122°37'2 1.5
2014-Dec-13 09:30N 48°24' W 122°39'0 0.5
2014-Dec-13 08:33N 48°25' W 122°40'1 0.6
2014-Dec-13 07:32N 48°25' W 122°40'1 0.6
2014-Dec-13 06:33N 48°25' W 122°41'1 0.6
2014-Dec-13 05:29N 48°26' W 122°42'0 0.3
2014-Dec-13 04:32N 48°26' W 122°41'1 0.8
2014-Dec-13 03:24N 48°26' W 122°42'0 0.4
2014-Dec-13 02:33N 48°26' W 122°41'1 1.4
2014-Dec-13 01:31N 48°27' W 122°43'1 1.4
2014-Dec-13 00:33N 48°28' W 122°44'5 2.3
2014-Dec-12 22:31N 48°32' W 122°48'2 2.0
2014-Dec-12 21:33N 48°33' W 122°50'2 1.9
2014-Dec-12 20:33N 48°34' W 122°52'2 1.6
2014-Dec-12 19:33N 48°35' W 122°54'2 2.0
2014-Dec-12 18:33N 48°36' W 122°57'1 1.4
2014-Dec-12 17:33N 48°36' W 122°59'1 0.9
2014-Dec-12 16:33N 48°36' W 123°01'1 0.8
2014-Dec-12 15:33N 48°36' W 123°00'0 0.0
2014-Dec-12 14:33N 48°36' W 123°00'0 0.0
2014-Dec-12 13:33N 48°36' W 123°00'0 0.0
2014-Dec-12 12:34N 48°36' W 123°00'0 0.0
2014-Dec-12 11:33N 48°36' W 123°00'0 0.0
2014-Dec-12 10:33N 48°36' W 123°00'0 0.0
2014-Dec-12 09:33N 48°36' W 123°00'0 0.0
2014-Dec-12 08:33N 48°36' W 123°00'0 0.0
2014-Dec-12 07:33N 48°36' W 123°00'0 0.0
2014-Dec-12 06:33N 48°36' W 123°00'0 0.0
2014-Dec-12 05:33N 48°36' W 123°00'0 0.0
2014-Dec-12 04:33N 48°36' W 123°00'0 0.0
2014-Dec-12 03:33N 48°36' W 123°00'0 0.0
2014-Dec-12 02:33N 48°36' W 123°00'0 0.0
2014-Dec-12 01:33N 48°36' W 123°00'0 0.0
2014-Dec-12 00:32N 48°36' W 123°00'0 0.0
2014-Dec-11 23:33N 48°36' W 123°00'0 0.0
2014-Dec-11 22:33N 48°36' W 123°00'0 0.0
2014-Dec-11 21:33N 48°36' W 123°00'0 0.0
2014-Dec-11 20:33N 48°36' W 123°00'0 0.0
2014-Dec-11 19:33N 48°36' W 123°00'0 0.0
2014-Dec-11 18:34N 48°36' W 123°00'0 0.0
2014-Dec-11 17:33N 48°36' W 123°00'0 0.0
2014-Dec-11 16:33N 48°36' W 123°00'0 0.0
2014-Dec-11 15:33N 48°36' W 123°00'0 0.0
2014-Dec-11 14:33N 48°36' W 123°00'0 0.0
2014-Dec-11 13:31N 48°36' W 123°00'0 0.0
2014-Dec-11 12:33N 48°36' W 123°00'0 0.0
2014-Dec-11 11:33N 48°36' W 123°00'0 0.0
2014-Dec-11 10:33N 48°36' W 123°00'0 0.0
2014-Dec-11 09:33N 48°36' W 123°00'0 0.0
2014-Dec-11 08:33N 48°36' W 123°00'0 0.0
2014-Dec-11 07:29N 48°36' W 123°00'0 0.0
2014-Dec-11 06:33N 48°36' W 123°00'0 0.0
2014-Dec-11 05:34N 48°36' W 123°00'0 0.0
2014-Dec-11 04:33N 48°36' W 123°00'0 0.0
2014-Dec-11 03:33N 48°36' W 123°00'0 0.0
2014-Dec-11 02:33N 48°36' W 123°00'0 0.0
2014-Dec-11 01:33N 48°36' W 123°00'0 0.0
2014-Dec-11 00:33N 48°36' W 123°00'0 0.0
2014-Dec-10 23:33N 48°36' W 123°00'0 0.0
2014-Dec-10 22:32N 48°36' W 123°00'0 0.0
2014-Dec-10 21:34N 48°36' W 123°00'  
Track history (hours):
 
Tides and Currents Weather Stations Pressure Air Temp Water Temp Dewpoint Dewpoint Depression Visibility Wind Speed Wind Dir Waves Ship Positions

Swinomish

Owner: DUNLAP TOWING CO, LA CONNER, WA. More information available from US FCC via Universal Licensing System and Coast Guard Vessel Documentation Center.

Last reported at 2014-Dec-20 20:33 UTC. Time now 2014-Dec-20 20:51 UTC.
Position N 48°48' W 123°12'.

Length 15 m; draft 3.5 m.

Type: Tug. MMSI: 366972050.

Date/timePositionNaut miles runAvg speedWind from/ knotsBaromVisibWave heightAir tempDewpointWater temp
2014-Dec-20 20:33N 48°48' W 123°12'0 0.0
2014-Dec-20 19:33N 48°48' W 123°12'0 0.0
2014-Dec-20 18:33N 48°48' W 123°12'0 0.0
2014-Dec-20 17:33N 48°48' W 123°12'0 0.0
2014-Dec-20 16:32N 48°48' W 123°12'0 0.0
2014-Dec-20 15:33N 48°48' W 123°12'0 0.0
2014-Dec-20 14:32N 48°48' W 123°12'0 0.0
2014-Dec-20 13:33N 48°48' W 123°12'0 0.0
2014-Dec-20 12:32N 48°48' W 123°12'0 0.0
2014-Dec-20 11:33N 48°48' W 123°12'0 0.0
2014-Dec-20 10:30N 48°48' W 123°12'0 0.0
2014-Dec-20 09:28N 48°48' W 123°12'0 0.0
2014-Dec-20 08:31N 48°48' W 123°12'0 0.0
2014-Dec-20 07:33N 48°48' W 123°12'0 0.0
2014-Dec-20 06:33N 48°48' W 123°12'0 0.0
2014-Dec-20 05:30N 48°48' W 123°12'0 0.0
2014-Dec-20 04:23N 48°48' W 123°12'0 0.0
2014-Dec-20 03:31N 48°48' W 123°12'0 0.0
2014-Dec-20 02:33N 48°48' W 123°12'0 0.0
2014-Dec-20 01:29N 48°48' W 123°12'0 0.0
2014-Dec-20 00:25N 48°48' W 123°12'0 0.0
2014-Dec-19 23:32N 48°48' W 123°12'0 0.1
2014-Dec-19 22:33N 48°48' W 123°11'1 1.0
2014-Dec-19 21:32N 48°48' W 123°13'0 0.1
2014-Dec-19 20:31N 48°48' W 123°13'0 0.0
2014-Dec-19 19:33N 48°48' W 123°13'0 0.0
2014-Dec-19 18:33N 48°48' W 123°13'0 0.0
2014-Dec-19 17:33N 48°48' W 123°13'0 0.0
2014-Dec-19 16:31N 48°48' W 123°13'0 0.0
2014-Dec-19 15:32N 48°48' W 123°13'0 0.1
2014-Dec-19 14:31N 48°48' W 123°13'0 0.0
2014-Dec-19 13:33N 48°48' W 123°13'0 0.1
2014-Dec-19 12:31N 48°48' W 123°13'0 0.0
2014-Dec-19 11:32N 48°48' W 123°13'0 0.0
2014-Dec-19 10:33N 48°48' W 123°13'0 0.0
2014-Dec-19 09:33N 48°48' W 123°13'0 0.0
2014-Dec-19 08:33N 48°48' W 123°13'0 0.0
2014-Dec-19 07:31N 48°48' W 123°13'0 0.1
2014-Dec-19 06:33N 48°48' W 123°13'0 0.2
2014-Dec-19 05:31N 48°48' W 123°13'0 0.2
2014-Dec-19 04:32N 48°48' W 123°13'0 0.1
2014-Dec-19 03:32N 48°48' W 123°13'0 0.2
2014-Dec-19 02:33N 48°48' W 123°13'0 0.1
2014-Dec-19 01:31N 48°48' W 123°13'0 0.1
2014-Dec-19 00:33N 48°48' W 123°13'0 0.1
2014-Dec-18 23:32N 48°48' W 123°13'0 0.0
2014-Dec-18 22:33N 48°48' W 123°13'0 0.0
2014-Dec-18 21:29N 48°48' W 123°13'0 0.0
2014-Dec-18 20:33N 48°48' W 123°13'0 0.0
2014-Dec-18 19:31N 48°48' W 123°13'0 0.0
2014-Dec-18 18:31N 48°48' W 123°13'0 0.0
2014-Dec-18 17:31N 48°48' W 123°13'0 0.0
2014-Dec-18 16:33N 48°48' W 123°13'0 0.2
2014-Dec-18 15:33N 48°48' W 123°13'0 0.3
2014-Dec-18 14:33N 48°48' W 123°13'1 0.6
2014-Dec-18 13:32N 48°48' W 123°13'0 0.0
2014-Dec-18 12:29N 48°48' W 123°13'0 0.0
2014-Dec-18 11:31N 48°48' W 123°13'0 0.0
2014-Dec-18 10:30N 48°48' W 123°13'0 0.0
2014-Dec-18 09:33N 48°48' W 123°13'0 0.0
2014-Dec-18 08:29N 48°48' W 123°13'0 0.1
2014-Dec-18 07:33N 48°48' W 123°13'1 1.0
2014-Dec-18 06:28N 48°48' W 123°14'4 1.8
2014-Dec-18 04:20N 48°49' W 123°20'3 1.8
2014-Dec-18 02:32N 48°51' W 123°24'4 2.5
2014-Dec-18 01:04N 48°54' W 123°28'2 2.2
2014-Dec-18 00:15N 48°55' W 123°30'6 2.0
2014-Dec-17 21:17N 48°60' W 123°36'3 1.8
2014-Dec-17 19:30N 49°02' W 123°39'4 1.8
2014-Dec-17 17:20N 49°05' W 123°42'2 1.7
2014-Dec-17 16:21N 49°07' W 123°43'0 0.2
2014-Dec-17 14:04N 49°07' W 123°43'0 0.2
2014-Dec-17 11:23N 49°07' W 123°43'0 0.1
2014-Dec-17 10:20N 49°07' W 123°43'2 1.4
2014-Dec-17 08:30N 49°05' W 123°44'3 2.7
2014-Dec-17 07:31N 49°02' W 123°44'2 2.5
2014-Dec-17 06:33N 48°60' W 123°44'2 2.4
2014-Dec-17 05:32N 48°57' W 123°42'2 2.2
2014-Dec-17 04:32N 48°55' W 123°41'2 1.9
2014-Dec-17 03:33N 48°55' W 123°38'9 8.2
2014-Dec-17 02:29N 48°52' W 123°26'1111.1
2014-Dec-17 01:32N 48°46' W 123°13'1211.9
2014-Dec-17 00:33N 48°44' W 122°55'1010.5
2014-Dec-16 23:33N 48°39' W 122°42'1111.0
2014-Dec-16 22:33N 48°30' W 122°33'6 6.2
2014-Dec-16 21:33N 48°24' W 122°30'0 0.0
2014-Dec-16 20:33N 48°24' W 122°30'0 0.0
2014-Dec-16 19:33N 48°24' W 122°30'0 0.0
2014-Dec-16 18:33N 48°24' W 122°30'0 0.0
2014-Dec-16 17:14N 48°24' W 122°30'0 0.0
2014-Dec-16 15:15N 48°24' W 122°30'0 0.0
2014-Dec-16 14:21N 48°24' W 122°30'0 0.0
2014-Dec-16 12:14N 48°24' W 122°30'0 0.0
2014-Dec-16 11:31N 48°24' W 122°30'0 0.0
2014-Dec-16 10:28N 48°24' W 122°30'0 0.0
2014-Dec-16 09:30N 48°24' W 122°30'0 0.0
2014-Dec-15 23:29N 48°24' W 122°30'0 0.0
2014-Dec-15 22:33N 48°24' W 122°30'0 0.0
2014-Dec-15 21:33N 48°24' W 122°30'0 0.0
2014-Dec-15 20:33N 48°24' W 122°30'0 0.0
2014-Dec-15 19:33N 48°24' W 122°30'0 0.0
2014-Dec-15 18:33N 48°24' W 122°30'0 0.0
2014-Dec-15 17:19N 48°24' W 122°30'0 0.0
2014-Dec-15 13:15N 48°24' W 122°30'0 0.0
2014-Dec-15 11:32N 48°24' W 122°30'3 3.1
2014-Dec-15 10:30N 48°22' W 122°33'1 0.3
2014-Dec-15 08:04N 48°22' W 122°34'2 3.8
2014-Dec-15 07:30N 48°20' W 122°32'3 3.3
2014-Dec-15 06:33N 48°18' W 122°30'3 2.7
2014-Dec-15 05:30N 48°15' W 122°33'3 2.8
2014-Dec-15 04:28N 48°13' W 122°33'3 2.7
2014-Dec-15 03:28N 48°10' W 122°33'3 2.5
2014-Dec-15 02:22N 48°07' W 122°31'2 2.2
2014-Dec-15 01:25N 48°06' W 122°28'2 1.9
2014-Dec-15 00:33N 48°05' W 122°27'2 2.0
2014-Dec-14 23:27N 48°04' W 122°24'1 1.5
2014-Dec-14 22:29N 48°03' W 122°22'1 1.3
2014-Dec-14 21:31N 48°02' W 122°21'2 2.2
2014-Dec-14 20:28N 48°01' W 122°18'2 1.8
2014-Dec-14 19:33N 47°60' W 122°16'2 2.0
2014-Dec-14 18:33N 47°59' W 122°14'1 0.6
2014-Dec-14 17:33N 47°59' W 122°13'0 0.0
2014-Dec-14 16:33N 47°59' W 122°13'0 0.0
2014-Dec-14 15:33N 47°59' W 122°13'0 0.0
2014-Dec-14 14:33N 47°59' W 122°13'0 0.0
2014-Dec-14 13:33N 47°59' W 122°13'0 0.0
2014-Dec-14 12:33N 47°59' W 122°13'0 0.0
2014-Dec-14 11:33N 47°59' W 122°13'0 0.0
2014-Dec-14 10:33N 47°59' W 122°13'0 0.0
2014-Dec-14 09:33N 47°59' W 122°13'0 0.0
2014-Dec-14 08:32N 47°59' W 122°13'0 0.0
2014-Dec-14 07:33N 47°59' W 122°13'0 0.0
2014-Dec-14 06:31N 47°59' W 122°13'0 0.0
2014-Dec-14 05:33N 47°59' W 122°13'0 0.0
2014-Dec-14 04:33N 47°59' W 122°13'0 0.0
2014-Dec-14 03:33N 47°59' W 122°13'0 0.2
2014-Dec-14 02:33N 47°59' W 122°13'0 0.4
2014-Dec-14 01:33N 47°59' W 122°14'1 1.1
2014-Dec-14 00:31N 47°59' W 122°15'2 2.2
2014-Dec-13 23:33N 48°01' W 122°17'3 2.7
2014-Dec-13 22:33N 48°02' W 122°21'3 3.0
2014-Dec-13 21:32N 48°04' W 122°24'3 2.7
2014-Dec-13 20:25N 48°06' W 122°28'3 2.8
2014-Dec-13 19:21N 48°08' W 122°31'2 2.5
2014-Dec-13 18:23N 48°10' W 122°32'5 1.9
2014-Dec-13 15:31N 48°15' W 122°32'2 1.6
2014-Dec-13 14:33N 48°17' W 122°31'1 1.4
2014-Dec-13 13:31N 48°18' W 122°30'2 2.4
2014-Dec-13 12:31N 48°20' W 122°32'6 2.9
2014-Dec-13 10:33N 48°25' W 122°37'2 1.5
2014-Dec-13 09:30N 48°24' W 122°39'0 0.5
2014-Dec-13 08:33N 48°25' W 122°40'1 0.6
2014-Dec-13 07:32N 48°25' W 122°40'1 0.6
2014-Dec-13 06:33N 48°25' W 122°41'1 0.6
2014-Dec-13 05:29N 48°26' W 122°42'0 0.3
2014-Dec-13 04:32N 48°26' W 122°41'1 0.8
2014-Dec-13 03:24N 48°26' W 122°42'0 0.4
2014-Dec-13 02:33N 48°26' W 122°41'1 1.4
2014-Dec-13 01:31N 48°27' W 122°43'1 1.4
2014-Dec-13 00:33N 48°28' W 122°44'5 2.3
2014-Dec-12 22:31N 48°32' W 122°48'2 2.0
2014-Dec-12 21:33N 48°33' W 122°50'2 1.9
2014-Dec-12 20:33N 48°34' W 122°52'2 1.6
2014-Dec-12 19:33N 48°35' W 122°54'2 2.0
2014-Dec-12 18:33N 48°36' W 122°57'1 1.4
2014-Dec-12 17:33N 48°36' W 122°59'1 0.9
2014-Dec-12 16:33N 48°36' W 123°01'1 0.8
2014-Dec-12 15:33N 48°36' W 123°00'0 0.0
2014-Dec-12 14:33N 48°36' W 123°00'0 0.0
2014-Dec-12 13:33N 48°36' W 123°00'0 0.0
2014-Dec-12 12:34N 48°36' W 123°00'0 0.0
2014-Dec-12 11:33N 48°36' W 123°00'0 0.0
2014-Dec-12 10:33N 48°36' W 123°00'0 0.0
2014-Dec-12 09:33N 48°36' W 123°00'0 0.0
2014-Dec-12 08:33N 48°36' W 123°00'0 0.0
2014-Dec-12 07:33N 48°36' W 123°00'0 0.0
2014-Dec-12 06:33N 48°36' W 123°00'0 0.0
2014-Dec-12 05:33N 48°36' W 123°00'0 0.0
2014-Dec-12 04:33N 48°36' W 123°00'0 0.0
2014-Dec-12 03:33N 48°36' W 123°00'0 0.0
2014-Dec-12 02:33N 48°36' W 123°00'0 0.0
2014-Dec-12 01:33N 48°36' W 123°00'0 0.0
2014-Dec-12 00:32N 48°36' W 123°00'0 0.0
2014-Dec-11 23:33N 48°36' W 123°00'0 0.0
2014-Dec-11 22:33N 48°36' W 123°00'0 0.0
2014-Dec-11 21:33N 48°36' W 123°00'0 0.0
2014-Dec-11 20:33N 48°36' W 123°00'0 0.0
2014-Dec-11 19:33N 48°36' W 123°00'0 0.0
2014-Dec-11 18:34N 48°36' W 123°00'0 0.0
2014-Dec-11 17:33N 48°36' W 123°00'0 0.0
2014-Dec-11 16:33N 48°36' W 123°00'0 0.0
2014-Dec-11 15:33N 48°36' W 123°00'0 0.0
2014-Dec-11 14:33N 48°36' W 123°00'0 0.0
2014-Dec-11 13:31N 48°36' W 123°00'0 0.0
2014-Dec-11 12:33N 48°36' W 123°00'0 0.0
2014-Dec-11 11:33N 48°36' W 123°00'0 0.0
2014-Dec-11 10:33N 48°36' W 123°00'0 0.0
2014-Dec-11 09:33N 48°36' W 123°00'0 0.0
2014-Dec-11 08:33N 48°36' W 123°00'0 0.0
2014-Dec-11 07:29N 48°36' W 123°00'0 0.0
2014-Dec-11 06:33N 48°36' W 123°00'0 0.0
2014-Dec-11 05:34N 48°36' W 123°00'0 0.0
2014-Dec-11 04:33N 48°36' W 123°00'0 0.0
2014-Dec-11 03:33N 48°36' W 123°00'0 0.0
2014-Dec-11 02:33N 48°36' W 123°00'0 0.0
2014-Dec-11 01:33N 48°36' W 123°00'0 0.0
2014-Dec-11 00:33N 48°36' W 123°00'0 0.0
2014-Dec-10 23:33N 48°36' W 123°00'0 0.0
2014-Dec-10 22:32N 48°36' W 123°00'0 0.0
2014-Dec-10 21:34N 48°36' W 123°00'  

Dump ship's entire track history